sensor_id;sensor_type;location;lat;lon;timestamp;P1;durP1;ratioP1;P2;durP2;ratioP2
17917;SDS011;9084;50.956;3.106;2023-01-29T00:02:14;143.87;;;71.33;;
17917;SDS011;9084;50.956;3.106;2023-01-29T00:04:40;41.53;;;27.37;;
17917;SDS011;9084;50.956;3.106;2023-01-29T00:07:09;33.87;;;22.50;;
17917;SDS011;9084;50.956;3.106;2023-01-29T00:09:37;22.67;;;15.97;;
17917;SDS011;9084;50.956;3.106;2023-01-29T00:12:03;25.27;;;17.17;;
17917;SDS011;9084;50.956;3.106;2023-01-29T00:14:31;99.77;;;48.57;;
17917;SDS011;9084;50.956;3.106;2023-01-29T00:16:57;49.20;;;30.93;;
17917;SDS011;9084;50.956;3.106;2023-01-29T00:19:23;34.73;;;23.77;;
17917;SDS011;9084;50.956;3.106;2023-01-29T00:21:49;34.63;;;22.70;;
17917;SDS011;9084;50.956;3.106;2023-01-29T00:24:15;26.57;;;19.10;;
17917;SDS011;9084;50.956;3.106;2023-01-29T00:26:42;33.13;;;23.63;;
17917;SDS011;9084;50.956;3.106;2023-01-29T00:29:08;49.73;;;32.57;;
17917;SDS011;9084;50.956;3.106;2023-01-29T00:31:33;26.23;;;19.37;;
17917;SDS011;9084;50.956;3.106;2023-01-29T00:34:02;23.37;;;17.90;;
17917;SDS011;9084;50.956;3.106;2023-01-29T00:36:29;18.80;;;14.40;;
17917;SDS011;9084;50.956;3.106;2023-01-29T00:38:56;16.40;;;14.37;;
17917;SDS011;9084;50.956;3.106;2023-01-29T00:41:29;55.33;;;35.17;;
17917;SDS011;9084;50.956;3.106;2023-01-29T00:44:15;63.00;;;38.23;;
17917;SDS011;9084;50.956;3.106;2023-01-29T00:47:00;46.90;;;28.77;;
17917;SDS011;9084;50.956;3.106;2023-01-29T00:49:26;34.80;;;24.43;;
17917;SDS011;9084;50.956;3.106;2023-01-29T00:51:52;25.77;;;19.70;;
17917;SDS011;9084;50.956;3.106;2023-01-29T00:54:36;31.23;;;22.03;;
17917;SDS011;9084;50.956;3.106;2023-01-29T00:57:02;31.70;;;22.20;;
17917;SDS011;9084;50.956;3.106;2023-01-29T00:59:28;22.57;;;18.00;;
17917;SDS011;9084;50.956;3.106;2023-01-29T01:01:57;19.57;;;15.67;;
17917;SDS011;9084;50.956;3.106;2023-01-29T01:04:41;22.27;;;18.40;;
17917;SDS011;9084;50.956;3.106;2023-01-29T01:07:07;25.57;;;16.27;;
17917;SDS011;9084;50.956;3.106;2023-01-29T01:09:34;14.83;;;13.10;;
17917;SDS011;9084;50.956;3.106;2023-01-29T01:12:20;16.10;;;12.63;;
17917;SDS011;9084;50.956;3.106;2023-01-29T01:14:47;13.70;;;12.30;;
17917;SDS011;9084;50.956;3.106;2023-01-29T01:17:13;14.80;;;12.53;;
17917;SDS011;9084;50.956;3.106;2023-01-29T01:19:42;13.30;;;12.00;;
17917;SDS011;9084;50.956;3.106;2023-01-29T01:22:07;15.33;;;12.70;;
17917;SDS011;9084;50.956;3.106;2023-01-29T01:24:38;12.93;;;11.63;;
17917;SDS011;9084;50.956;3.106;2023-01-29T01:27:07;14.03;;;12.63;;
17917;SDS011;9084;50.956;3.106;2023-01-29T01:29:33;13.60;;;12.20;;
17917;SDS011;9084;50.956;3.106;2023-01-29T01:32:01;14.90;;;13.23;;
17917;SDS011;9084;50.956;3.106;2023-01-29T01:34:27;16.13;;;13.50;;
17917;SDS011;9084;50.956;3.106;2023-01-29T01:36:56;15.37;;;12.83;;
17917;SDS011;9084;50.956;3.106;2023-01-29T01:39:24;13.83;;;12.33;;
17917;SDS011;9084;50.956;3.106;2023-01-29T01:41:53;14.77;;;13.27;;
17917;SDS011;9084;50.956;3.106;2023-01-29T01:47:18;15.60;;;13.50;;
17917;SDS011;9084;50.956;3.106;2023-01-29T01:49:49;13.80;;;12.27;;
17917;SDS011;9084;50.956;3.106;2023-01-29T01:52:15;14.40;;;13.00;;
17917;SDS011;9084;50.956;3.106;2023-01-29T01:54:42;14.10;;;12.70;;
17917;SDS011;9084;50.956;3.106;2023-01-29T01:57:09;13.77;;;12.37;;
17917;SDS011;9084;50.956;3.106;2023-01-29T01:59:41;14.63;;;13.10;;
17917;SDS011;9084;50.956;3.106;2023-01-29T02:02:13;15.23;;;13.73;;
17917;SDS011;9084;50.956;3.106;2023-01-29T02:04:59;14.10;;;12.60;;
17917;SDS011;9084;50.956;3.106;2023-01-29T02:07:46;16.17;;;13.57;;
17917;SDS011;9084;50.956;3.106;2023-01-29T02:10:38;15.57;;;14.13;;
17917;SDS011;9084;50.956;3.106;2023-01-29T02:13:08;15.20;;;13.60;;
17917;SDS011;9084;50.956;3.106;2023-01-29T02:15:35;14.10;;;12.50;;
17917;SDS011;9084;50.956;3.106;2023-01-29T02:18:12;16.07;;;14.13;;
17917;SDS011;9084;50.956;3.106;2023-01-29T02:20:43;15.83;;;13.57;;
17917;SDS011;9084;50.956;3.106;2023-01-29T02:23:57;14.67;;;13.10;;
17917;SDS011;9084;50.956;3.106;2023-01-29T02:29:11;15.47;;;13.47;;
17917;SDS011;9084;50.956;3.106;2023-01-29T02:34:37;14.90;;;13.30;;
17917;SDS011;9084;50.956;3.106;2023-01-29T02:37:43;13.47;;;12.07;;
17917;SDS011;9084;50.956;3.106;2023-01-29T02:40:19;14.83;;;12.43;;
17917;SDS011;9084;50.956;3.106;2023-01-29T02:43:03;13.53;;;12.07;;
17917;SDS011;9084;50.956;3.106;2023-01-29T02:45:38;14.03;;;12.40;;
17917;SDS011;9084;50.956;3.106;2023-01-29T02:48:18;14.97;;;11.37;;
17917;SDS011;9084;50.956;3.106;2023-01-29T02:51:01;15.20;;;13.70;;
17917;SDS011;9084;50.956;3.106;2023-01-29T02:53:39;15.67;;;14.03;;
17917;SDS011;9084;50.956;3.106;2023-01-29T02:56:14;14.43;;;12.93;;
17917;SDS011;9084;50.956;3.106;2023-01-29T02:58:50;15.20;;;13.43;;
17917;SDS011;9084;50.956;3.106;2023-01-29T03:01:38;16.10;;;14.40;;
17917;SDS011;9084;50.956;3.106;2023-01-29T03:04:13;15.43;;;13.93;;
17917;SDS011;9084;50.956;3.106;2023-01-29T03:06:45;15.83;;;14.23;;
17917;SDS011;9084;50.956;3.106;2023-01-29T03:12:21;17.33;;;15.53;;
17917;SDS011;9084;50.956;3.106;2023-01-29T03:15:03;14.67;;;13.07;;
17917;SDS011;9084;50.956;3.106;2023-01-29T03:17:41;16.27;;;13.17;;
17917;SDS011;9084;50.956;3.106;2023-01-29T03:20:12;15.43;;;13.57;;
17917;SDS011;9084;50.956;3.106;2023-01-29T03:22:46;16.33;;;14.07;;
17917;SDS011;9084;50.956;3.106;2023-01-29T03:25:17;15.93;;;14.43;;
17917;SDS011;9084;50.956;3.106;2023-01-29T03:28:04;15.17;;;13.67;;
17917;SDS011;9084;50.956;3.106;2023-01-29T03:30:52;15.27;;;13.03;;
17917;SDS011;9084;50.956;3.106;2023-01-29T03:33:49;14.87;;;13.43;;
17917;SDS011;9084;50.956;3.106;2023-01-29T03:36:25;14.73;;;12.33;;
17917;SDS011;9084;50.956;3.106;2023-01-29T03:39:05;13.97;;;12.07;;
17917;SDS011;9084;50.956;3.106;2023-01-29T03:41:34;14.03;;;12.53;;
17917;SDS011;9084;50.956;3.106;2023-01-29T03:44:36;16.07;;;13.83;;
17917;SDS011;9084;50.956;3.106;2023-01-29T03:47:16;14.70;;;12.80;;
17917;SDS011;9084;50.956;3.106;2023-01-29T03:54:51;19.00;;;12.07;;
17917;SDS011;9084;50.956;3.106;2023-01-29T03:57:36;15.80;;;14.13;;
17917;SDS011;9084;50.956;3.106;2023-01-29T04:00:16;14.13;;;11.77;;
17917;SDS011;9084;50.956;3.106;2023-01-29T04:03:05;13.97;;;12.47;;
17917;SDS011;9084;50.956;3.106;2023-01-29T04:05:38;15.77;;;12.90;;
17917;SDS011;9084;50.956;3.106;2023-01-29T04:08:13;13.80;;;12.30;;
17917;SDS011;9084;50.956;3.106;2023-01-29T04:10:45;15.03;;;13.43;;
17917;SDS011;9084;50.956;3.106;2023-01-29T04:13:14;15.17;;;13.63;;
17917;SDS011;9084;50.956;3.106;2023-01-29T04:15:44;15.03;;;13.53;;
17917;SDS011;9084;50.956;3.106;2023-01-29T04:18:14;14.17;;;12.67;;
17917;SDS011;9084;50.956;3.106;2023-01-29T04:20:40;16.60;;;13.00;;
17917;SDS011;9084;50.956;3.106;2023-01-29T04:23:17;16.03;;;14.33;;
17917;SDS011;9084;50.956;3.106;2023-01-29T04:25:51;14.80;;;13.30;;
17917;SDS011;9084;50.956;3.106;2023-01-29T04:31:23;14.17;;;12.67;;
17917;SDS011;9084;50.956;3.106;2023-01-29T04:37:19;16.13;;;13.93;;
17917;SDS011;9084;50.956;3.106;2023-01-29T04:39:56;14.13;;;12.73;;
17917;SDS011;9084;50.956;3.106;2023-01-29T04:45:17;16.13;;;13.30;;
17917;SDS011;9084;50.956;3.106;2023-01-29T04:55:57;15.50;;;13.00;;
17917;SDS011;9084;50.956;3.106;2023-01-29T04:58:40;15.50;;;12.70;;
17917;SDS011;9084;50.956;3.106;2023-01-29T05:01:14;14.40;;;12.90;;
17917;SDS011;9084;50.956;3.106;2023-01-29T05:03:43;16.63;;;13.77;;
17917;SDS011;9084;50.956;3.106;2023-01-29T05:06:13;14.63;;;13.07;;
17917;SDS011;9084;50.956;3.106;2023-01-29T05:08:43;16.33;;;14.53;;
17917;SDS011;9084;50.956;3.106;2023-01-29T05:11:11;15.37;;;13.70;;
17917;SDS011;9084;50.956;3.106;2023-01-29T05:13:40;14.40;;;12.90;;
17917;SDS011;9084;50.956;3.106;2023-01-29T05:16:17;15.30;;;12.73;;
17917;SDS011;9084;50.956;3.106;2023-01-29T05:18:47;15.57;;;13.97;;
17917;SDS011;9084;50.956;3.106;2023-01-29T05:21:15;17.00;;;13.83;;
17917;SDS011;9084;50.956;3.106;2023-01-29T05:23:44;15.83;;;14.13;;
17917;SDS011;9084;50.956;3.106;2023-01-29T05:26:21;16.80;;;14.30;;
17917;SDS011;9084;50.956;3.106;2023-01-29T05:29:06;17.07;;;14.27;;
17917;SDS011;9084;50.956;3.106;2023-01-29T05:31:51;18.20;;;13.87;;
17917;SDS011;9084;50.956;3.106;2023-01-29T05:34:17;16.00;;;13.97;;
17917;SDS011;9084;50.956;3.106;2023-01-29T05:37:01;16.97;;;14.53;;
17917;SDS011;9084;50.956;3.106;2023-01-29T05:39:28;15.70;;;13.70;;
17917;SDS011;9084;50.956;3.106;2023-01-29T05:41:57;15.53;;;13.93;;
17917;SDS011;9084;50.956;3.106;2023-01-29T05:44:23;16.03;;;14.03;;
17917;SDS011;9084;50.956;3.106;2023-01-29T05:46:49;14.60;;;13.00;;
17917;SDS011;9084;50.956;3.106;2023-01-29T05:49:16;16.20;;;13.33;;
17917;SDS011;9084;50.956;3.106;2023-01-29T05:51:42;14.20;;;12.70;;
17917;SDS011;9084;50.956;3.106;2023-01-29T05:54:11;14.00;;;12.50;;
17917;SDS011;9084;50.956;3.106;2023-01-29T05:56:39;13.67;;;11.57;;
17917;SDS011;9084;50.956;3.106;2023-01-29T05:59:06;14.00;;;12.50;;
17917;SDS011;9084;50.956;3.106;2023-01-29T06:01:31;14.27;;;12.77;;
17917;SDS011;9084;50.956;3.106;2023-01-29T06:03:58;17.63;;;13.70;;
17917;SDS011;9084;50.956;3.106;2023-01-29T06:06:26;15.43;;;13.37;;
17917;SDS011;9084;50.956;3.106;2023-01-29T06:08:55;15.30;;;13.90;;
17917;SDS011;9084;50.956;3.106;2023-01-29T06:11:21;14.90;;;12.30;;
17917;SDS011;9084;50.956;3.106;2023-01-29T06:13:47;16.23;;;14.53;;
17917;SDS011;9084;50.956;3.106;2023-01-29T06:16:13;15.07;;;13.43;;
17917;SDS011;9084;50.956;3.106;2023-01-29T06:18:39;15.93;;;14.27;;
17917;SDS011;9084;50.956;3.106;2023-01-29T06:21:06;14.43;;;13.03;;
17917;SDS011;9084;50.956;3.106;2023-01-29T06:23:34;15.67;;;13.87;;
17917;SDS011;9084;50.956;3.106;2023-01-29T06:26:01;16.23;;;13.83;;
17917;SDS011;9084;50.956;3.106;2023-01-29T06:28:31;15.90;;;13.83;;
17917;SDS011;9084;50.956;3.106;2023-01-29T06:30:58;15.97;;;14.20;;
17917;SDS011;9084;50.956;3.106;2023-01-29T06:33:26;17.57;;;15.00;;
17917;SDS011;9084;50.956;3.106;2023-01-29T06:35:55;15.93;;;12.53;;
17917;SDS011;9084;50.956;3.106;2023-01-29T06:38:26;15.67;;;13.83;;
17917;SDS011;9084;50.956;3.106;2023-01-29T06:40:52;14.57;;;13.17;;
17917;SDS011;9084;50.956;3.106;2023-01-29T06:43:19;14.80;;;13.20;;
17917;SDS011;9084;50.956;3.106;2023-01-29T06:45:53;16.03;;;12.73;;
17917;SDS011;9084;50.956;3.106;2023-01-29T06:48:21;24.20;;;17.77;;
17917;SDS011;9084;50.956;3.106;2023-01-29T06:50:48;27.87;;;21.03;;
17917;SDS011;9084;50.956;3.106;2023-01-29T06:53:21;18.43;;;14.03;;
17917;SDS011;9084;50.956;3.106;2023-01-29T06:55:50;16.70;;;14.77;;
17917;SDS011;9084;50.956;3.106;2023-01-29T06:58:18;15.83;;;14.13;;
17917;SDS011;9084;50.956;3.106;2023-01-29T07:00:45;21.87;;;16.27;;
17917;SDS011;9084;50.956;3.106;2023-01-29T07:03:11;16.53;;;13.77;;
17917;SDS011;9084;50.956;3.106;2023-01-29T07:05:37;17.00;;;15.20;;
17917;SDS011;9084;50.956;3.106;2023-01-29T07:08:03;15.03;;;13.53;;
17917;SDS011;9084;50.956;3.106;2023-01-29T07:10:33;15.87;;;13.47;;
17917;SDS011;9084;50.956;3.106;2023-01-29T07:13:00;28.87;;;25.43;;
17917;SDS011;9084;50.956;3.106;2023-01-29T07:15:26;14.67;;;12.43;;
17917;SDS011;9084;50.956;3.106;2023-01-29T07:17:59;16.10;;;14.17;;
17917;SDS011;9084;50.956;3.106;2023-01-29T07:20:27;15.90;;;14.30;;
17917;SDS011;9084;50.956;3.106;2023-01-29T07:22:56;15.77;;;13.90;;
17917;SDS011;9084;50.956;3.106;2023-01-29T07:25:23;14.17;;;12.67;;
17917;SDS011;9084;50.956;3.106;2023-01-29T07:27:51;15.57;;;13.83;;
17917;SDS011;9084;50.956;3.106;2023-01-29T07:30:18;16.43;;;14.73;;
17917;SDS011;9084;50.956;3.106;2023-01-29T07:32:48;14.97;;;13.43;;
17917;SDS011;9084;50.956;3.106;2023-01-29T07:35:16;13.30;;;11.80;;
17917;SDS011;9084;50.956;3.106;2023-01-29T07:37:42;15.37;;;13.70;;
17917;SDS011;9084;50.956;3.106;2023-01-29T07:40:08;14.43;;;12.93;;
17917;SDS011;9084;50.956;3.106;2023-01-29T07:42:38;16.40;;;13.53;;
17917;SDS011;9084;50.956;3.106;2023-01-29T07:45:08;12.67;;;11.37;;
17917;SDS011;9084;50.956;3.106;2023-01-29T07:47:35;14.20;;;12.70;;
17917;SDS011;9084;50.956;3.106;2023-01-29T07:50:04;13.67;;;12.27;;
17917;SDS011;9084;50.956;3.106;2023-01-29T07:52:33;14.07;;;12.30;;
17917;SDS011;9084;50.956;3.106;2023-01-29T07:55:01;13.37;;;12.03;;
17917;SDS011;9084;50.956;3.106;2023-01-29T07:57:27;12.97;;;11.47;;
17917;SDS011;9084;50.956;3.106;2023-01-29T07:59:54;14.30;;;12.30;;
17917;SDS011;9084;50.956;3.106;2023-01-29T08:02:20;13.77;;;11.90;;
17917;SDS011;9084;50.956;3.106;2023-01-29T08:04:45;13.57;;;12.10;;
17917;SDS011;9084;50.956;3.106;2023-01-29T08:07:12;13.70;;;11.50;;
17917;SDS011;9084;50.956;3.106;2023-01-29T08:09:37;15.17;;;12.70;;
17917;SDS011;9084;50.956;3.106;2023-01-29T08:12:05;13.93;;;12.23;;
17917;SDS011;9084;50.956;3.106;2023-01-29T08:14:31;13.30;;;11.70;;
17917;SDS011;9084;50.956;3.106;2023-01-29T08:17:00;13.73;;;12.33;;
17917;SDS011;9084;50.956;3.106;2023-01-29T08:19:26;12.23;;;11.03;;
17917;SDS011;9084;50.956;3.106;2023-01-29T08:21:52;16.77;;;12.47;;
17917;SDS011;9084;50.956;3.106;2023-01-29T08:24:17;12.93;;;11.63;;
17917;SDS011;9084;50.956;3.106;2023-01-29T08:26:45;12.90;;;11.50;;
17917;SDS011;9084;50.956;3.106;2023-01-29T08:29:13;13.27;;;11.83;;
17917;SDS011;9084;50.956;3.106;2023-01-29T08:31:39;12.60;;;11.37;;
17917;SDS011;9084;50.956;3.106;2023-01-29T08:34:05;12.53;;;10.77;;
17917;SDS011;9084;50.956;3.106;2023-01-29T08:36:31;13.90;;;10.67;;
17917;SDS011;9084;50.956;3.106;2023-01-29T08:38:57;12.47;;;11.13;;
17917;SDS011;9084;50.956;3.106;2023-01-29T08:41:25;12.30;;;11.00;;
17917;SDS011;9084;50.956;3.106;2023-01-29T08:43:54;13.23;;;11.93;;
17917;SDS011;9084;50.956;3.106;2023-01-29T08:46:22;11.13;;;10.13;;
17917;SDS011;9084;50.956;3.106;2023-01-29T08:48:50;11.67;;;10.47;;
17917;SDS011;9084;50.956;3.106;2023-01-29T08:51:16;11.20;;;9.60;;
17917;SDS011;9084;50.956;3.106;2023-01-29T08:53:42;9.60;;;8.37;;
17917;SDS011;9084;50.956;3.106;2023-01-29T08:56:08;10.20;;;8.80;;
17917;SDS011;9084;50.956;3.106;2023-01-29T08:58:37;8.57;;;7.77;;
17917;SDS011;9084;50.956;3.106;2023-01-29T09:01:07;9.83;;;8.23;;
17917;SDS011;9084;50.956;3.106;2023-01-29T09:03:34;11.13;;;8.30;;
17917;SDS011;9084;50.956;3.106;2023-01-29T09:06:01;10.23;;;8.00;;
17917;SDS011;9084;50.956;3.106;2023-01-29T09:08:27;9.67;;;7.60;;
17917;SDS011;9084;50.956;3.106;2023-01-29T09:10:53;10.10;;;7.73;;
17917;SDS011;9084;50.956;3.106;2023-01-29T09:13:19;10.20;;;8.23;;
17917;SDS011;9084;50.956;3.106;2023-01-29T09:15:47;9.47;;;8.50;;
17917;SDS011;9084;50.956;3.106;2023-01-29T09:18:13;9.97;;;7.40;;
17917;SDS011;9084;50.956;3.106;2023-01-29T09:20:39;10.60;;;8.27;;
17917;SDS011;9084;50.956;3.106;2023-01-29T09:23:09;8.70;;;7.80;;
17917;SDS011;9084;50.956;3.106;2023-01-29T09:25:35;8.23;;;7.03;;
17917;SDS011;9084;50.956;3.106;2023-01-29T09:28:02;8.63;;;7.73;;
17917;SDS011;9084;50.956;3.106;2023-01-29T09:30:28;8.13;;;7.33;;
17917;SDS011;9084;50.956;3.106;2023-01-29T09:32:54;9.23;;;8.20;;
17917;SDS011;9084;50.956;3.106;2023-01-29T09:35:23;9.07;;;8.17;;
17917;SDS011;9084;50.956;3.106;2023-01-29T09:37:51;13.63;;;8.83;;
17917;SDS011;9084;50.956;3.106;2023-01-29T09:40:22;9.77;;;8.77;;
17917;SDS011;9084;50.956;3.106;2023-01-29T09:43:17;7.87;;;7.00;;
17917;SDS011;9084;50.956;3.106;2023-01-29T09:45:59;11.60;;;8.83;;
17917;SDS011;9084;50.956;3.106;2023-01-29T09:48:29;10.60;;;7.83;;
17917;SDS011;9084;50.956;3.106;2023-01-29T09:51:03;9.40;;;8.40;;
17917;SDS011;9084;50.956;3.106;2023-01-29T09:53:38;9.77;;;8.50;;
17917;SDS011;9084;50.956;3.106;2023-01-29T09:56:11;9.97;;;8.60;;
17917;SDS011;9084;50.956;3.106;2023-01-29T09:58:43;10.60;;;8.43;;
17917;SDS011;9084;50.956;3.106;2023-01-29T10:23:35;9.67;;;8.67;;
17917;SDS011;9084;50.956;3.106;2023-01-29T10:26:05;10.10;;;9.10;;
17917;SDS011;9084;50.956;3.106;2023-01-29T10:28:40;10.33;;;8.80;;
17917;SDS011;9084;50.956;3.106;2023-01-29T10:31:14;9.60;;;8.60;;
17917;SDS011;9084;50.956;3.106;2023-01-29T10:34:10;9.67;;;8.70;;
17917;SDS011;9084;50.956;3.106;2023-01-29T10:36:42;9.63;;;8.73;;
17917;SDS011;9084;50.956;3.106;2023-01-29T10:39:20;9.83;;;8.83;;
17917;SDS011;9084;50.956;3.106;2023-01-29T10:41:49;11.10;;;8.80;;
17917;SDS011;9084;50.956;3.106;2023-01-29T10:44:34;10.10;;;9.10;;
17917;SDS011;9084;50.956;3.106;2023-01-29T10:50:22;11.57;;;9.43;;
17917;SDS011;9084;50.956;3.106;2023-01-29T11:00:52;11.07;;;9.97;;
17917;SDS011;9084;50.956;3.106;2023-01-29T11:03:22;9.70;;;8.70;;
17917;SDS011;9084;50.956;3.106;2023-01-29T11:05:56;10.13;;;9.17;;
17917;SDS011;9084;50.956;3.106;2023-01-29T11:08:36;10.57;;;9.50;;
17917;SDS011;9084;50.956;3.106;2023-01-29T11:11:12;10.30;;;9.30;;
17917;SDS011;9084;50.956;3.106;2023-01-29T11:13:47;12.07;;;10.30;;
17917;SDS011;9084;50.956;3.106;2023-01-29T11:16:27;10.03;;;9.03;;
17917;SDS011;9084;50.956;3.106;2023-01-29T11:18:58;10.00;;;9.00;;
17917;SDS011;9084;50.956;3.106;2023-01-29T11:21:25;10.57;;;9.57;;
17917;SDS011;9084;50.956;3.106;2023-01-29T11:24:10;11.17;;;10.07;;
17917;SDS011;9084;50.956;3.106;2023-01-29T11:26:41;8.67;;;7.80;;
17917;SDS011;9084;50.956;3.106;2023-01-29T11:31:56;10.37;;;9.23;;
17917;SDS011;9084;50.956;3.106;2023-01-29T11:34:24;11.80;;;9.13;;
17917;SDS011;9084;50.956;3.106;2023-01-29T11:39:29;10.67;;;9.17;;
17917;SDS011;9084;50.956;3.106;2023-01-29T11:41:59;10.07;;;9.03;;
17917;SDS011;9084;50.956;3.106;2023-01-29T11:47:25;10.67;;;9.03;;
17917;SDS011;9084;50.956;3.106;2023-01-29T11:49:57;10.30;;;9.27;;
17917;SDS011;9084;50.956;3.106;2023-01-29T11:52:58;9.53;;;8.63;;
17917;SDS011;9084;50.956;3.106;2023-01-29T11:55:19;10.13;;;9.10;;
17917;SDS011;9084;50.956;3.106;2023-01-29T11:57:51;10.20;;;9.13;;
17917;SDS011;9084;50.956;3.106;2023-01-29T12:00:32;10.00;;;8.77;;
17917;SDS011;9084;50.956;3.106;2023-01-29T12:05:31;9.30;;;8.40;;
17917;SDS011;9084;50.956;3.106;2023-01-29T12:07:58;9.40;;;8.30;;
17917;SDS011;9084;50.956;3.106;2023-01-29T12:15:34;9.73;;;8.27;;
17917;SDS011;9084;50.956;3.106;2023-01-29T12:18:11;9.60;;;8.33;;
17917;SDS011;9084;50.956;3.106;2023-01-29T12:20:56;8.90;;;8.00;;
17917;SDS011;9084;50.956;3.106;2023-01-29T12:26:38;9.87;;;7.63;;
17917;SDS011;9084;50.956;3.106;2023-01-29T12:29:19;9.37;;;8.30;;
17917;SDS011;9084;50.956;3.106;2023-01-29T12:31:58;9.00;;;8.10;;
17917;SDS011;9084;50.956;3.106;2023-01-29T12:39:43;10.30;;;9.00;;
17917;SDS011;9084;50.956;3.106;2023-01-29T12:42:11;8.87;;;8.07;;
17917;SDS011;9084;50.956;3.106;2023-01-29T12:44:50;8.90;;;8.10;;
17917;SDS011;9084;50.956;3.106;2023-01-29T12:50:06;9.73;;;8.30;;
17917;SDS011;9084;50.956;3.106;2023-01-29T12:52:43;9.03;;;7.90;;
17917;SDS011;9084;50.956;3.106;2023-01-29T12:55:17;8.50;;;7.70;;
17917;SDS011;9084;50.956;3.106;2023-01-29T12:58:01;10.60;;;8.67;;
17917;SDS011;9084;50.956;3.106;2023-01-29T13:00:33;9.63;;;8.73;;
17917;SDS011;9084;50.956;3.106;2023-01-29T13:08:25;10.13;;;8.60;;
17917;SDS011;9084;50.956;3.106;2023-01-29T13:10:52;12.17;;;8.47;;
17917;SDS011;9084;50.956;3.106;2023-01-29T13:15:57;10.17;;;8.20;;
17917;SDS011;9084;50.956;3.106;2023-01-29T13:21:02;9.17;;;8.37;;
17917;SDS011;9084;50.956;3.106;2023-01-29T13:23:33;9.30;;;8.40;;
17917;SDS011;9084;50.956;3.106;2023-01-29T13:26:03;9.90;;;8.87;;
17917;SDS011;9084;50.956;3.106;2023-01-29T13:28:32;9.80;;;8.77;;
17917;SDS011;9084;50.956;3.106;2023-01-29T13:33:52;11.27;;;10.17;;
17917;SDS011;9084;50.956;3.106;2023-01-29T13:36:40;10.97;;;9.17;;
17917;SDS011;9084;50.956;3.106;2023-01-29T13:39:17;9.67;;;8.77;;
17917;SDS011;9084;50.956;3.106;2023-01-29T13:41:50;9.77;;;8.87;;
17917;SDS011;9084;50.956;3.106;2023-01-29T13:44:20;9.30;;;8.37;;
17917;SDS011;9084;50.956;3.106;2023-01-29T13:46:59;9.90;;;9.10;;
17917;SDS011;9084;50.956;3.106;2023-01-29T13:49:33;11.00;;;9.90;;
17917;SDS011;9084;50.956;3.106;2023-01-29T13:54:55;10.97;;;9.87;;
17917;SDS011;9084;50.956;3.106;2023-01-29T14:02:46;10.53;;;9.50;;
17917;SDS011;9084;50.956;3.106;2023-01-29T14:08:36;11.20;;;9.97;;
17917;SDS011;9084;50.956;3.106;2023-01-29T14:13:38;10.50;;;9.50;;
17917;SDS011;9084;50.956;3.106;2023-01-29T14:18:34;10.67;;;9.57;;
17917;SDS011;9084;50.956;3.106;2023-01-29T14:23:48;10.93;;;9.83;;
17917;SDS011;9084;50.956;3.106;2023-01-29T14:26:24;11.17;;;10.07;;
17917;SDS011;9084;50.956;3.106;2023-01-29T14:29:02;11.43;;;9.80;;
17917;SDS011;9084;50.956;3.106;2023-01-29T14:34:03;11.23;;;10.13;;
17917;SDS011;9084;50.956;3.106;2023-01-29T14:36:41;11.10;;;9.60;;
17917;SDS011;9084;50.956;3.106;2023-01-29T14:39:27;11.43;;;10.33;;
17917;SDS011;9084;50.956;3.106;2023-01-29T14:42:15;11.70;;;9.45;;
17917;SDS011;9084;50.956;3.106;2023-01-29T14:44:54;10.77;;;9.77;;
17917;SDS011;9084;50.956;3.106;2023-01-29T14:52:19;10.83;;;9.73;;
17917;SDS011;9084;50.956;3.106;2023-01-29T14:55:04;10.53;;;9.53;;
17917;SDS011;9084;50.956;3.106;2023-01-29T14:57:33;11.73;;;10.27;;
17917;SDS011;9084;50.956;3.106;2023-01-29T15:00:02;10.73;;;9.30;;
17917;SDS011;9084;50.956;3.106;2023-01-29T15:02:42;10.93;;;9.87;;
17917;SDS011;9084;50.956;3.106;2023-01-29T15:05:19;11.63;;;10.43;;
17917;SDS011;9084;50.956;3.106;2023-01-29T15:07:54;11.70;;;10.50;;
17917;SDS011;9084;50.956;3.106;2023-01-29T15:16:01;11.57;;;10.37;;
17917;SDS011;9084;50.956;3.106;2023-01-29T15:18:43;11.13;;;10.03;;
17917;SDS011;9084;50.956;3.106;2023-01-29T15:21:15;11.87;;;10.50;;
17917;SDS011;9084;50.956;3.106;2023-01-29T15:23:44;11.10;;;10.10;;
17917;SDS011;9084;50.956;3.106;2023-01-29T15:26:20;11.03;;;9.93;;
17917;SDS011;9084;50.956;3.106;2023-01-29T15:28:55;11.10;;;10.00;;
17917;SDS011;9084;50.956;3.106;2023-01-29T15:31:22;12.33;;;11.13;;
17917;SDS011;9084;50.956;3.106;2023-01-29T15:33:50;11.00;;;9.87;;
17917;SDS011;9084;50.956;3.106;2023-01-29T15:36:22;12.47;;;11.17;;
17917;SDS011;9084;50.956;3.106;2023-01-29T15:41:37;11.53;;;10.43;;
17917;SDS011;9084;50.956;3.106;2023-01-29T15:44:03;10.47;;;9.47;;
17917;SDS011;9084;50.956;3.106;2023-01-29T15:46:44;10.63;;;9.63;;
17917;SDS011;9084;50.956;3.106;2023-01-29T15:51:55;11.37;;;10.27;;
17917;SDS011;9084;50.956;3.106;2023-01-29T15:54:23;11.67;;;10.47;;
17917;SDS011;9084;50.956;3.106;2023-01-29T15:56:51;11.83;;;10.73;;
17917;SDS011;9084;50.956;3.106;2023-01-29T15:59:20;11.37;;;10.17;;
17917;SDS011;9084;50.956;3.106;2023-01-29T16:01:49;11.30;;;10.17;;
17917;SDS011;9084;50.956;3.106;2023-01-29T16:04:48;12.07;;;10.57;;
17917;SDS011;9084;50.956;3.106;2023-01-29T16:07:07;10.63;;;9.43;;
17917;SDS011;9084;50.956;3.106;2023-01-29T16:09:34;10.73;;;9.63;;
17917;SDS011;9084;50.956;3.106;2023-01-29T16:12:01;11.57;;;10.47;;
17917;SDS011;9084;50.956;3.106;2023-01-29T16:14:28;12.13;;;10.83;;
17917;SDS011;9084;50.956;3.106;2023-01-29T16:16:54;11.60;;;10.40;;
17917;SDS011;9084;50.956;3.106;2023-01-29T16:19:40;12.00;;;10.53;;
17917;SDS011;9084;50.956;3.106;2023-01-29T16:22:08;11.43;;;10.33;;
17917;SDS011;9084;50.956;3.106;2023-01-29T16:24:34;13.23;;;11.83;;
17917;SDS011;9084;50.956;3.106;2023-01-29T16:27:03;12.70;;;10.97;;
17917;SDS011;9084;50.956;3.106;2023-01-29T16:29:35;11.23;;;10.13;;
17917;SDS011;9084;50.956;3.106;2023-01-29T16:32:06;11.93;;;10.73;;
17917;SDS011;9084;50.956;3.106;2023-01-29T16:34:39;12.17;;;10.97;;
17917;SDS011;9084;50.956;3.106;2023-01-29T16:37:26;13.07;;;9.87;;
17917;SDS011;9084;50.956;3.106;2023-01-29T16:39:55;12.57;;;10.90;;
17917;SDS011;9084;50.956;3.106;2023-01-29T16:42:22;11.83;;;10.63;;
17917;SDS011;9084;50.956;3.106;2023-01-29T16:44:54;13.00;;;11.70;;
17917;SDS011;9084;50.956;3.106;2023-01-29T16:49:49;11.60;;;10.40;;
17917;SDS011;9084;50.956;3.106;2023-01-29T16:52:22;12.17;;;10.87;;
17917;SDS011;9084;50.956;3.106;2023-01-29T16:57:36;12.57;;;11.37;;
17917;SDS011;9084;50.956;3.106;2023-01-29T17:00:05;13.60;;;10.90;;
17917;SDS011;9084;50.956;3.106;2023-01-29T17:02:38;11.23;;;10.17;;
17917;SDS011;9084;50.956;3.106;2023-01-29T17:05:07;12.30;;;11.20;;
17917;SDS011;9084;50.956;3.106;2023-01-29T17:07:43;12.70;;;11.40;;
17917;SDS011;9084;50.956;3.106;2023-01-29T17:10:14;12.57;;;11.03;;
17917;SDS011;9084;50.956;3.106;2023-01-29T17:13:06;12.23;;;11.03;;
17917;SDS011;9084;50.956;3.106;2023-01-29T17:15:43;11.53;;;10.33;;
17917;SDS011;9084;50.956;3.106;2023-01-29T17:18:17;12.27;;;11.10;;
17917;SDS011;9084;50.956;3.106;2023-01-29T17:20:48;11.07;;;9.97;;
17917;SDS011;9084;50.956;3.106;2023-01-29T17:23:14;13.80;;;10.63;;
17917;SDS011;9084;50.956;3.106;2023-01-29T17:25:40;11.53;;;10.27;;
17917;SDS011;9084;50.956;3.106;2023-01-29T17:28:10;11.70;;;10.13;;
17917;SDS011;9084;50.956;3.106;2023-01-29T17:30:38;10.03;;;9.10;;
17917;SDS011;9084;50.956;3.106;2023-01-29T17:33:09;12.17;;;11.00;;
17917;SDS011;9084;50.956;3.106;2023-01-29T17:35:37;13.40;;;10.60;;
17917;SDS011;9084;50.956;3.106;2023-01-29T17:38:09;14.47;;;10.80;;
17917;SDS011;9084;50.956;3.106;2023-01-29T17:43:32;12.37;;;11.17;;